createdAt,value
2023-04-16T00:01:02.267Z,16.60
2023-04-16T00:08:05.162Z,18.80
2023-04-16T00:14:55.397Z,18.60
2023-04-16T00:21:57.211Z,17.40
2023-04-16T00:29:00.911Z,17.80
2023-04-16T00:35:43.679Z,17.30
2023-04-16T00:42:39.243Z,18.80
2023-04-16T00:49:22.097Z,20.90
2023-04-16T00:56:24.881Z,20.70
2023-04-16T01:03:27.955Z,26.20
2023-04-16T01:10:31.120Z,20.00
2023-04-16T01:17:22.949Z,20.90
2023-04-16T01:24:28.126Z,21.10
2023-04-16T01:31:11.408Z,27.30
2023-04-16T01:38:12.565Z,24.60
2023-04-16T01:45:16.167Z,24.90
2023-04-16T01:52:00.218Z,24.90
2023-04-16T01:59:03.125Z,27.00
2023-04-16T02:05:51.221Z,22.90
2023-04-16T02:12:54.295Z,23.40
2023-04-16T02:19:50.274Z,19.10
2023-04-16T02:26:53.336Z,21.10
2023-04-16T02:33:56.209Z,19.80
2023-04-16T02:40:59.284Z,22.10
2023-04-16T02:47:41.991Z,23.30
2023-04-16T02:54:44.851Z,23.00
2023-04-16T03:01:38.276Z,18.40
2023-04-16T03:08:32.743Z,17.20
2023-04-16T03:15:37.698Z,15.40
2023-04-16T03:22:46.575Z,11.70
2023-04-16T03:29:52.779Z,14.10
2023-04-16T03:36:55.766Z,12.50
2023-04-16T03:44:01.391Z,13.90
2023-04-16T03:51:04.395Z,11.80
2023-04-16T03:58:07.186Z,12.00
2023-04-16T04:04:57.733Z,13.30
2023-04-16T04:11:45.810Z,12.30
2023-04-16T04:18:48.759Z,20.20
2023-04-16T04:25:51.595Z,20.60
2023-04-16T04:32:47.121Z,26.60
2023-04-16T04:39:26.900Z,27.90
2023-04-16T04:46:22.690Z,26.70
2023-04-16T04:53:18.066Z,27.80
2023-04-16T05:00:31.247Z,27.00
2023-04-16T05:07:28.062Z,29.00
2023-04-16T05:14:30.910Z,24.50
2023-04-16T05:21:23.786Z,23.90
2023-04-16T05:28:23.839Z,24.40
2023-04-16T05:35:23.776Z,24.20
2023-04-16T05:42:12.145Z,22.00
2023-04-16T05:49:00.072Z,21.40
2023-04-16T05:55:37.268Z,19.10
2023-04-16T06:09:06.418Z,18.20
2023-04-16T06:15:55.397Z,17.70
2023-04-16T06:22:52.817Z,16.20
2023-04-16T06:29:59.394Z,12.60
2023-04-16T06:44:15.567Z,9.60
2023-04-16T06:51:00.476Z,8.80
2023-04-16T06:57:16.801Z,7.50
2023-04-16T07:04:19.289Z,7.50
2023-04-16T07:10:55.403Z,8.10
2023-04-16T07:17:25.434Z,8.20
2023-04-16T07:24:05.392Z,7.30
2023-04-16T07:30:33.402Z,6.00
2023-04-16T07:37:01.504Z,6.00
2023-04-16T07:43:46.931Z,5.50
2023-04-16T07:50:29.236Z,5.40
2023-04-16T07:57:17.826Z,5.50
2023-04-16T08:04:28.926Z,5.10
2023-04-16T08:11:16.270Z,5.70
2023-04-16T08:18:19.148Z,5.60
2023-04-16T08:25:14.630Z,5.30
2023-04-16T08:31:37.123Z,5.20
2023-04-16T08:48:27.809Z,5.20
2023-04-16T08:55:20.232Z,4.50
2023-04-16T09:02:15.166Z,4.70
2023-04-16T09:09:18.254Z,4.50
2023-04-16T09:16:16.967Z,4.30
2023-04-16T09:23:21.492Z,4.90
2023-04-16T09:30:22.389Z,3.80
2023-04-16T09:36:58.868Z,4.10
2023-04-16T09:43:56.171Z,4.90
2023-04-16T09:50:26.463Z,6.20
2023-04-16T09:56:57.794Z,6.90
2023-04-16T10:03:08.149Z,6.80
2023-04-16T10:09:46.157Z,6.50
2023-04-16T10:14:59.302Z,5.80
2023-04-16T10:20:02.898Z,5.60
2023-04-16T10:25:28.424Z,4.80
2023-04-16T10:30:57.510Z,4.40
2023-04-16T10:36:32.616Z,4.70
2023-04-16T10:47:56.378Z,5.20
2023-04-16T10:53:26.279Z,4.50
2023-04-16T10:58:40.061Z,4.60
2023-04-16T11:04:40.342Z,4.20
2023-04-16T11:10:14.016Z,3.30
2023-04-16T11:15:19.955Z,3.60
2023-04-16T11:20:24.427Z,4.00
2023-04-16T11:25:31.256Z,4.00
2023-04-16T11:30:35.647Z,3.70
2023-04-16T11:40:42.511Z,3.50
2023-04-16T11:46:02.659Z,3.70
2023-04-16T11:51:08.003Z,3.50
2023-04-16T11:56:30.956Z,3.00
2023-04-16T12:01:37.163Z,2.90
2023-04-16T12:07:09.487Z,2.60
2023-04-16T12:13:53.113Z,3.50
2023-04-16T12:19:22.332Z,2.90
2023-04-16T12:24:37.571Z,3.20
2023-04-16T12:30:08.567Z,3.40
2023-04-16T12:35:13.030Z,3.20
2023-04-16T12:40:16.242Z,3.40
2023-04-16T12:45:18.259Z,4.30
2023-04-16T12:50:28.378Z,4.80
2023-04-16T12:55:31.745Z,5.10
2023-04-16T13:00:37.733Z,4.00
2023-04-16T13:05:42.829Z,4.00
2023-04-16T13:10:45.942Z,3.80
2023-04-16T13:15:57.836Z,3.60
2023-04-16T13:21:22.366Z,4.10
2023-04-16T13:26:55.852Z,4.40
2023-04-16T13:32:11.456Z,3.90
2023-04-16T13:37:13.746Z,3.30
2023-04-16T13:42:15.443Z,3.50
2023-04-16T13:47:19.487Z,4.30
2023-04-16T13:52:21.258Z,3.90
2023-04-16T13:57:22.859Z,3.50
2023-04-16T14:02:32.494Z,3.90
2023-04-16T14:07:54.348Z,3.90
2023-04-16T14:12:59.627Z,5.20
2023-04-16T14:18:17.258Z,5.20
2023-04-16T14:23:19.130Z,4.70
2023-04-16T14:28:20.946Z,5.10
2023-04-16T14:33:25.272Z,4.50
2023-04-16T14:38:32.984Z,4.60
2023-04-16T14:43:35.471Z,4.10
2023-04-16T14:48:37.228Z,4.60
2023-04-16T14:53:40.137Z,4.20
2023-04-16T14:58:42.931Z,4.00
2023-04-16T15:03:46.210Z,4.50
2023-04-16T15:08:48.153Z,5.30
2023-04-16T15:13:49.795Z,4.80
2023-04-16T15:18:52.560Z,4.60
2023-04-16T15:23:57.483Z,4.80
2023-04-16T15:29:02.281Z,4.40
2023-04-16T15:34:30.112Z,5.00
2023-04-16T15:39:39.148Z,5.20
2023-04-16T15:44:46.083Z,5.60
2023-04-16T15:50:28.261Z,6.30
2023-04-16T15:56:15.445Z,6.10
2023-04-16T16:02:00.631Z,6.50
2023-04-16T16:07:20.205Z,7.30
2023-04-16T16:12:36.720Z,6.90
2023-04-16T16:18:10.225Z,7.30
2023-04-16T16:23:13.292Z,6.30
2023-04-16T16:28:34.658Z,6.90
2023-04-16T16:33:40.851Z,7.20
2023-04-16T16:38:52.401Z,6.40
2023-04-16T16:44:38.794Z,6.70
2023-04-16T16:49:46.663Z,6.80
2023-04-16T16:54:56.477Z,6.90
2023-04-16T17:00:19.230Z,6.80
2023-04-16T17:05:32.870Z,7.40
2023-04-16T17:10:48.983Z,8.30
2023-04-16T17:22:15.105Z,8.90
2023-04-16T17:27:51.273Z,9.90
2023-04-16T17:33:21.675Z,8.30
2023-04-16T17:38:43.625Z,11.20
2023-04-16T17:43:50.775Z,15.00
2023-04-16T17:49:15.687Z,13.50
2023-04-16T17:54:31.209Z,12.20
2023-04-16T17:59:37.483Z,11.60
2023-04-16T18:04:40.988Z,10.30
2023-04-16T18:09:42.917Z,11.50
2023-04-16T18:14:46.281Z,11.30
2023-04-16T18:19:58.601Z,13.50
2023-04-16T18:25:04.345Z,13.40
2023-04-16T18:35:14.477Z,13.60
2023-04-16T18:40:17.079Z,14.00
2023-04-16T18:45:21.828Z,13.60
2023-04-16T18:50:25.652Z,14.60
2023-04-16T18:55:27.419Z,15.10
2023-04-16T19:00:29.281Z,15.70
2023-04-16T19:05:32.112Z,14.80
2023-04-16T19:10:34.396Z,14.30
2023-04-16T19:15:39.616Z,14.70
2023-04-16T19:20:44.189Z,13.10
2023-04-16T19:26:18.009Z,12.90
2023-04-16T19:31:47.742Z,13.20
2023-04-16T19:37:34.288Z,12.60
2023-04-16T19:42:56.435Z,12.00
2023-04-16T19:48:15.806Z,13.10
2023-04-16T19:53:37.418Z,13.50
2023-04-16T19:58:44.055Z,13.10
2023-04-16T20:03:49.926Z,13.10
2023-04-16T20:09:53.014Z,14.00
2023-04-16T20:16:18.483Z,14.80
2023-04-16T20:22:19.927Z,14.50
2023-04-16T20:28:41.295Z,15.20
2023-04-16T20:34:03.432Z,14.60
2023-04-16T20:39:09.121Z,18.20
2023-04-16T20:44:17.708Z,18.40
2023-04-16T20:49:49.544Z,17.80
2023-04-16T20:54:53.940Z,17.10
2023-04-16T21:00:22.736Z,19.20
2023-04-16T21:05:29.428Z,19.10
2023-04-16T21:10:35.876Z,16.50
2023-04-16T21:15:47.848Z,15.90
2023-04-16T21:20:50.498Z,17.80
2023-04-16T21:25:56.022Z,18.00
2023-04-16T21:31:02.188Z,17.70
2023-04-16T21:36:06.506Z,20.10
2023-04-16T21:41:11.825Z,23.60
2023-04-16T21:46:17.588Z,20.80
2023-04-16T21:51:28.283Z,20.30
2023-04-16T21:56:30.054Z,22.50
2023-04-16T22:01:51.999Z,21.40
2023-04-16T22:06:57.183Z,20.60
2023-04-16T22:12:13.657Z,20.80
2023-04-16T22:17:16.891Z,19.40
2023-04-16T22:22:21.934Z,18.00
2023-04-16T22:27:23.543Z,18.70
2023-04-16T22:32:25.587Z,18.70
2023-04-16T22:37:33.096Z,21.00
2023-04-16T22:42:39.976Z,22.60
2023-04-16T22:47:44.684Z,20.50
2023-04-16T22:52:52.362Z,21.30
2023-04-16T22:57:59.788Z,18.20
2023-04-16T23:03:04.752Z,18.30
2023-04-16T23:08:10.104Z,19.10
2023-04-16T23:13:34.455Z,18.90
2023-04-16T23:19:28.823Z,16.60
2023-04-16T23:24:39.266Z,16.60
2023-04-16T23:30:43.072Z,16.00
2023-04-16T23:36:05.052Z,16.50
2023-04-16T23:41:16.270Z,16.80
2023-04-16T23:46:20.887Z,17.20
2023-04-16T23:52:23.442Z,19.20
2023-04-16T23:58:47.624Z,19.60
